sensor_id;sensor_type;location;lat;lon;timestamp;temperature;humidity
12700;DHT22;6414;49.570;6.060;2023-03-23T00:00:33;11.00;99.90
12700;DHT22;6414;49.570;6.060;2023-03-23T00:03:20;11.20;99.90
12700;DHT22;6414;49.570;6.060;2023-03-23T00:06:06;11.10;99.90
12700;DHT22;6414;49.570;6.060;2023-03-23T00:08:53;11.20;99.90
12700;DHT22;6414;49.570;6.060;2023-03-23T00:11:39;11.20;99.90
12700;DHT22;6414;49.570;6.060;2023-03-23T00:14:25;11.30;99.90
12700;DHT22;6414;49.570;6.060;2023-03-23T00:17:12;11.40;99.90
12700;DHT22;6414;49.570;6.060;2023-03-23T00:19:58;11.30;99.90
12700;DHT22;6414;49.570;6.060;2023-03-23T00:22:44;11.40;99.90
12700;DHT22;6414;49.570;6.060;2023-03-23T00:25:30;11.30;99.90
12700;DHT22;6414;49.570;6.060;2023-03-23T00:28:16;11.30;99.90
12700;DHT22;6414;49.570;6.060;2023-03-23T00:31:04;11.30;99.90
12700;DHT22;6414;49.570;6.060;2023-03-23T00:33:49;11.20;99.90
12700;DHT22;6414;49.570;6.060;2023-03-23T00:36:35;11.20;99.90
12700;DHT22;6414;49.570;6.060;2023-03-23T00:39:23;11.10;99.90
12700;DHT22;6414;49.570;6.060;2023-03-23T00:42:09;11.10;99.90
12700;DHT22;6414;49.570;6.060;2023-03-23T00:44:55;11.10;99.90
12700;DHT22;6414;49.570;6.060;2023-03-23T00:47:41;11.10;99.90
12700;DHT22;6414;49.570;6.060;2023-03-23T00:50:27;11.00;99.90
12700;DHT22;6414;49.570;6.060;2023-03-23T00:53:13;11.00;99.90
12700;DHT22;6414;49.570;6.060;2023-03-23T00:55:59;10.90;99.90
12700;DHT22;6414;49.570;6.060;2023-03-23T00:58:45;10.80;99.90
12700;DHT22;6414;49.570;6.060;2023-03-23T01:01:33;10.70;99.90
12700;DHT22;6414;49.570;6.060;2023-03-23T01:04:18;10.70;99.90
12700;DHT22;6414;49.570;6.060;2023-03-23T01:07:05;10.70;99.90
12700;DHT22;6414;49.570;6.060;2023-03-23T01:09:51;10.60;99.90
12700;DHT22;6414;49.570;6.060;2023-03-23T01:12:42;10.60;99.90
12700;DHT22;6414;49.570;6.060;2023-03-23T01:15:27;10.50;99.90
12700;DHT22;6414;49.570;6.060;2023-03-23T01:18:13;10.40;99.90
12700;DHT22;6414;49.570;6.060;2023-03-23T01:21:07;10.30;99.90
12700;DHT22;6414;49.570;6.060;2023-03-23T01:23:52;10.30;99.90
12700;DHT22;6414;49.570;6.060;2023-03-23T01:26:38;10.30;99.90
12700;DHT22;6414;49.570;6.060;2023-03-23T01:29:24;10.30;99.90
12700;DHT22;6414;49.570;6.060;2023-03-23T01:32:10;10.10;99.90
12700;DHT22;6414;49.570;6.060;2023-03-23T01:34:57;10.00;99.90
12700;DHT22;6414;49.570;6.060;2023-03-23T01:37:43;10.00;99.90
12700;DHT22;6414;49.570;6.060;2023-03-23T01:40:29;9.90;99.90
12700;DHT22;6414;49.570;6.060;2023-03-23T01:43:15;10.00;99.90
12700;DHT22;6414;49.570;6.060;2023-03-23T01:46:02;10.00;99.90
12700;DHT22;6414;49.570;6.060;2023-03-23T01:48:48;10.00;99.90
12700;DHT22;6414;49.570;6.060;2023-03-23T01:51:36;9.90;99.90
12700;DHT22;6414;49.570;6.060;2023-03-23T01:54:21;9.90;99.90
12700;DHT22;6414;49.570;6.060;2023-03-23T01:57:07;9.90;99.90
12700;DHT22;6414;49.570;6.060;2023-03-23T01:59:53;9.80;99.90
12700;DHT22;6414;49.570;6.060;2023-03-23T02:02:39;9.80;99.90
12700;DHT22;6414;49.570;6.060;2023-03-23T02:05:39;9.80;99.90
12700;DHT22;6414;49.570;6.060;2023-03-23T02:08:24;9.80;99.90
12700;DHT22;6414;49.570;6.060;2023-03-23T02:11:20;9.80;99.90
12700;DHT22;6414;49.570;6.060;2023-03-23T02:14:05;9.80;99.90
12700;DHT22;6414;49.570;6.060;2023-03-23T02:20:02;9.80;99.90
12700;DHT22;6414;49.570;6.060;2023-03-23T02:23:01;9.80;99.90
12700;DHT22;6414;49.570;6.060;2023-03-23T02:29:14;9.80;99.90
12700;DHT22;6414;49.570;6.060;2023-03-23T02:32:08;9.70;99.90
12700;DHT22;6414;49.570;6.060;2023-03-23T02:34:53;9.70;99.90
12700;DHT22;6414;49.570;6.060;2023-03-23T02:37:57;9.80;99.90
12700;DHT22;6414;49.570;6.060;2023-03-23T02:40:41;9.80;99.90
12700;DHT22;6414;49.570;6.060;2023-03-23T02:43:27;9.80;99.90
12700;DHT22;6414;49.570;6.060;2023-03-23T02:46:12;9.80;99.90
12700;DHT22;6414;49.570;6.060;2023-03-23T02:51:24;9.80;99.90
12700;DHT22;6414;49.570;6.060;2023-03-23T02:54:10;9.80;99.90
12700;DHT22;6414;49.570;6.060;2023-03-23T02:56:56;9.80;99.90
12700;DHT22;6414;49.570;6.060;2023-03-23T02:59:43;9.80;99.90
12700;DHT22;6414;49.570;6.060;2023-03-23T03:02:31;9.80;99.90
12700;DHT22;6414;49.570;6.060;2023-03-23T03:05:22;9.80;99.90
12700;DHT22;6414;49.570;6.060;2023-03-23T03:08:11;9.80;99.90
12700;DHT22;6414;49.570;6.060;2023-03-23T03:11:09;9.80;99.90
12700;DHT22;6414;49.570;6.060;2023-03-23T03:14:03;9.80;99.90
12700;DHT22;6414;49.570;6.060;2023-03-23T03:16:58;9.80;99.90
12700;DHT22;6414;49.570;6.060;2023-03-23T03:19:41;9.80;99.90
12700;DHT22;6414;49.570;6.060;2023-03-23T03:22:27;9.80;99.90
12700;DHT22;6414;49.570;6.060;2023-03-23T03:25:13;9.80;99.90
12700;DHT22;6414;49.570;6.060;2023-03-23T03:27:59;9.80;99.90
12700;DHT22;6414;49.570;6.060;2023-03-23T03:30:45;9.80;99.90
12700;DHT22;6414;49.570;6.060;2023-03-23T03:33:31;9.80;99.90
12700;DHT22;6414;49.570;6.060;2023-03-23T03:36:22;9.80;99.90
12700;DHT22;6414;49.570;6.060;2023-03-23T03:39:04;9.80;99.90
12700;DHT22;6414;49.570;6.060;2023-03-23T03:41:49;9.80;99.90
12700;DHT22;6414;49.570;6.060;2023-03-23T03:44:36;9.80;99.90
12700;DHT22;6414;49.570;6.060;2023-03-23T03:47:22;9.80;99.90
12700;DHT22;6414;49.570;6.060;2023-03-23T03:50:08;9.80;99.90
12700;DHT22;6414;49.570;6.060;2023-03-23T03:52:54;9.80;99.90
12700;DHT22;6414;49.570;6.060;2023-03-23T03:55:40;9.80;99.90
12700;DHT22;6414;49.570;6.060;2023-03-23T03:58:27;9.80;99.90
12700;DHT22;6414;49.570;6.060;2023-03-23T04:01:19;9.80;99.90
12700;DHT22;6414;49.570;6.060;2023-03-23T04:04:04;9.70;99.90
12700;DHT22;6414;49.570;6.060;2023-03-23T04:06:50;9.70;99.90
12700;DHT22;6414;49.570;6.060;2023-03-23T04:09:37;9.70;99.90
12700;DHT22;6414;49.570;6.060;2023-03-23T04:12:23;9.60;99.90
12700;DHT22;6414;49.570;6.060;2023-03-23T04:15:09;9.70;99.90
12700;DHT22;6414;49.570;6.060;2023-03-23T04:17:55;9.70;99.90
12700;DHT22;6414;49.570;6.060;2023-03-23T04:20:42;9.70;99.90
12700;DHT22;6414;49.570;6.060;2023-03-23T04:23:28;9.70;99.90
12700;DHT22;6414;49.570;6.060;2023-03-23T04:26:15;9.80;99.90
12700;DHT22;6414;49.570;6.060;2023-03-23T04:29:01;9.70;99.90
12700;DHT22;6414;49.570;6.060;2023-03-23T04:31:47;9.70;99.90
12700;DHT22;6414;49.570;6.060;2023-03-23T04:34:33;9.70;99.90
12700;DHT22;6414;49.570;6.060;2023-03-23T04:37:19;9.70;99.90
12700;DHT22;6414;49.570;6.060;2023-03-23T04:40:05;9.70;99.90
12700;DHT22;6414;49.570;6.060;2023-03-23T04:42:51;9.70;99.90
12700;DHT22;6414;49.570;6.060;2023-03-23T04:45:37;9.70;99.90
12700;DHT22;6414;49.570;6.060;2023-03-23T04:48:23;9.70;99.90
12700;DHT22;6414;49.570;6.060;2023-03-23T04:51:09;9.70;99.90
12700;DHT22;6414;49.570;6.060;2023-03-23T04:53:56;9.80;99.90
12700;DHT22;6414;49.570;6.060;2023-03-23T04:56:42;9.80;99.90
12700;DHT22;6414;49.570;6.060;2023-03-23T04:59:28;9.80;99.90
12700;DHT22;6414;49.570;6.060;2023-03-23T05:02:15;9.90;99.90
12700;DHT22;6414;49.570;6.060;2023-03-23T05:05:01;9.90;99.90
12700;DHT22;6414;49.570;6.060;2023-03-23T05:07:47;9.90;99.90
12700;DHT22;6414;49.570;6.060;2023-03-23T05:10:34;9.90;99.90
12700;DHT22;6414;49.570;6.060;2023-03-23T05:13:20;9.90;99.90
12700;DHT22;6414;49.570;6.060;2023-03-23T05:16:07;10.00;99.90
12700;DHT22;6414;49.570;6.060;2023-03-23T05:18:53;10.00;99.90
12700;DHT22;6414;49.570;6.060;2023-03-23T05:21:39;10.00;99.90
12700;DHT22;6414;49.570;6.060;2023-03-23T05:24:25;10.00;99.90
12700;DHT22;6414;49.570;6.060;2023-03-23T05:27:11;10.10;99.90
12700;DHT22;6414;49.570;6.060;2023-03-23T05:29:57;10.00;99.90
12700;DHT22;6414;49.570;6.060;2023-03-23T05:32:44;10.00;99.90
12700;DHT22;6414;49.570;6.060;2023-03-23T05:35:30;10.00;99.90
12700;DHT22;6414;49.570;6.060;2023-03-23T05:38:16;10.00;99.90
12700;DHT22;6414;49.570;6.060;2023-03-23T05:41:02;10.00;99.90
12700;DHT22;6414;49.570;6.060;2023-03-23T05:43:49;10.10;99.90
12700;DHT22;6414;49.570;6.060;2023-03-23T05:46:35;10.10;99.90
12700;DHT22;6414;49.570;6.060;2023-03-23T05:49:23;10.10;99.90
12700;DHT22;6414;49.570;6.060;2023-03-23T05:52:09;10.10;99.90
12700;DHT22;6414;49.570;6.060;2023-03-23T05:54:55;10.10;99.90
12700;DHT22;6414;49.570;6.060;2023-03-23T05:57:42;10.10;99.90
12700;DHT22;6414;49.570;6.060;2023-03-23T06:00:29;10.10;99.90
12700;DHT22;6414;49.570;6.060;2023-03-23T06:03:16;10.10;99.90
12700;DHT22;6414;49.570;6.060;2023-03-23T06:06:03;10.10;99.90
12700;DHT22;6414;49.570;6.060;2023-03-23T06:08:49;10.00;99.90
12700;DHT22;6414;49.570;6.060;2023-03-23T06:11:35;10.10;99.90
12700;DHT22;6414;49.570;6.060;2023-03-23T06:14:21;10.10;99.90
12700;DHT22;6414;49.570;6.060;2023-03-23T06:17:07;10.10;99.90
12700;DHT22;6414;49.570;6.060;2023-03-23T06:19:53;10.00;99.90
12700;DHT22;6414;49.570;6.060;2023-03-23T06:22:40;10.10;99.90
12700;DHT22;6414;49.570;6.060;2023-03-23T06:25:26;10.10;99.90
12700;DHT22;6414;49.570;6.060;2023-03-23T06:28:12;10.10;99.90
12700;DHT22;6414;49.570;6.060;2023-03-23T06:31:03;10.10;99.90
12700;DHT22;6414;49.570;6.060;2023-03-23T06:33:49;10.10;99.90
12700;DHT22;6414;49.570;6.060;2023-03-23T06:36:35;10.10;99.90
12700;DHT22;6414;49.570;6.060;2023-03-23T06:39:21;10.10;99.90
12700;DHT22;6414;49.570;6.060;2023-03-23T06:42:10;10.10;99.90
12700;DHT22;6414;49.570;6.060;2023-03-23T06:44:59;10.00;99.90
12700;DHT22;6414;49.570;6.060;2023-03-23T06:47:45;10.00;99.90
12700;DHT22;6414;49.570;6.060;2023-03-23T06:50:31;10.00;99.90
12700;DHT22;6414;49.570;6.060;2023-03-23T06:53:17;9.90;99.90
12700;DHT22;6414;49.570;6.060;2023-03-23T06:56:04;9.90;99.90
12700;DHT22;6414;49.570;6.060;2023-03-23T06:58:50;9.90;99.90
12700;DHT22;6414;49.570;6.060;2023-03-23T07:01:36;9.90;99.90
12700;DHT22;6414;49.570;6.060;2023-03-23T07:04:22;9.80;99.90
12700;DHT22;6414;49.570;6.060;2023-03-23T07:07:09;9.80;99.90
12700;DHT22;6414;49.570;6.060;2023-03-23T07:09:55;9.80;99.90
12700;DHT22;6414;49.570;6.060;2023-03-23T07:12:41;9.80;99.90
12700;DHT22;6414;49.570;6.060;2023-03-23T07:15:28;9.80;99.90
12700;DHT22;6414;49.570;6.060;2023-03-23T07:18:14;9.90;99.90
12700;DHT22;6414;49.570;6.060;2023-03-23T07:21:00;9.90;99.90
12700;DHT22;6414;49.570;6.060;2023-03-23T07:23:46;9.90;99.90
12700;DHT22;6414;49.570;6.060;2023-03-23T07:26:33;9.90;99.90
12700;DHT22;6414;49.570;6.060;2023-03-23T07:29:19;9.90;99.90
12700;DHT22;6414;49.570;6.060;2023-03-23T07:32:08;10.00;99.90
12700;DHT22;6414;49.570;6.060;2023-03-23T07:34:52;10.00;99.90
12700;DHT22;6414;49.570;6.060;2023-03-23T07:37:38;10.00;99.90
12700;DHT22;6414;49.570;6.060;2023-03-23T07:40:24;10.00;99.90
12700;DHT22;6414;49.570;6.060;2023-03-23T07:43:10;10.00;99.90
12700;DHT22;6414;49.570;6.060;2023-03-23T07:45:57;10.10;99.90
12700;DHT22;6414;49.570;6.060;2023-03-23T07:48:43;10.10;99.90
12700;DHT22;6414;49.570;6.060;2023-03-23T07:51:29;10.10;99.90
12700;DHT22;6414;49.570;6.060;2023-03-23T07:54:15;10.00;99.90
12700;DHT22;6414;49.570;6.060;2023-03-23T07:57:02;10.00;99.90
12700;DHT22;6414;49.570;6.060;2023-03-23T07:59:48;10.00;99.90
12700;DHT22;6414;49.570;6.060;2023-03-23T08:02:35;10.10;99.90
12700;DHT22;6414;49.570;6.060;2023-03-23T08:05:22;10.10;99.90
12700;DHT22;6414;49.570;6.060;2023-03-23T08:08:08;10.00;99.90
12700;DHT22;6414;49.570;6.060;2023-03-23T08:10:54;10.10;99.90
12700;DHT22;6414;49.570;6.060;2023-03-23T08:13:44;10.10;99.90
12700;DHT22;6414;49.570;6.060;2023-03-23T08:16:27;10.10;99.90
12700;DHT22;6414;49.570;6.060;2023-03-23T08:19:13;10.20;99.90
12700;DHT22;6414;49.570;6.060;2023-03-23T08:21:59;10.20;99.90
12700;DHT22;6414;49.570;6.060;2023-03-23T08:24:46;10.30;99.90
12700;DHT22;6414;49.570;6.060;2023-03-23T08:27:33;10.20;99.90
12700;DHT22;6414;49.570;6.060;2023-03-23T08:30:19;10.20;99.90
12700;DHT22;6414;49.570;6.060;2023-03-23T08:33:04;10.30;99.90
12700;DHT22;6414;49.570;6.060;2023-03-23T08:35:57;10.20;99.90
12700;DHT22;6414;49.570;6.060;2023-03-23T08:38:43;10.20;99.90
12700;DHT22;6414;49.570;6.060;2023-03-23T08:41:29;10.10;99.90
12700;DHT22;6414;49.570;6.060;2023-03-23T08:44:15;10.20;99.90
12700;DHT22;6414;49.570;6.060;2023-03-23T08:47:00;10.20;99.90
12700;DHT22;6414;49.570;6.060;2023-03-23T08:49:46;10.30;99.90
12700;DHT22;6414;49.570;6.060;2023-03-23T08:52:32;10.30;99.90
12700;DHT22;6414;49.570;6.060;2023-03-23T08:55:19;10.40;99.90
12700;DHT22;6414;49.570;6.060;2023-03-23T08:58:06;10.40;99.90
12700;DHT22;6414;49.570;6.060;2023-03-23T09:00:52;10.50;99.90
12700;DHT22;6414;49.570;6.060;2023-03-23T09:03:38;10.40;99.90
12700;DHT22;6414;49.570;6.060;2023-03-23T09:06:24;10.40;99.90
12700;DHT22;6414;49.570;6.060;2023-03-23T09:09:11;10.40;99.90
12700;DHT22;6414;49.570;6.060;2023-03-23T09:11:57;10.50;99.90
12700;DHT22;6414;49.570;6.060;2023-03-23T09:14:43;10.50;99.90
12700;DHT22;6414;49.570;6.060;2023-03-23T09:17:31;10.50;99.90
12700;DHT22;6414;49.570;6.060;2023-03-23T09:20:18;10.50;99.90
12700;DHT22;6414;49.570;6.060;2023-03-23T09:23:03;10.50;99.90
12700;DHT22;6414;49.570;6.060;2023-03-23T09:25:49;10.70;99.90
12700;DHT22;6414;49.570;6.060;2023-03-23T09:28:35;10.90;99.90
12700;DHT22;6414;49.570;6.060;2023-03-23T09:31:21;11.00;99.90
12700;DHT22;6414;49.570;6.060;2023-03-23T09:34:09;11.00;99.90
12700;DHT22;6414;49.570;6.060;2023-03-23T09:36:57;11.00;99.90
12700;DHT22;6414;49.570;6.060;2023-03-23T09:39:43;11.00;99.90
12700;DHT22;6414;49.570;6.060;2023-03-23T09:42:49;11.20;99.90
12700;DHT22;6414;49.570;6.060;2023-03-23T09:48:52;11.10;99.90
12700;DHT22;6414;49.570;6.060;2023-03-23T09:51:42;11.10;99.90
12700;DHT22;6414;49.570;6.060;2023-03-23T09:54:28;11.10;99.90
12700;DHT22;6414;49.570;6.060;2023-03-23T09:57:30;11.10;99.90
12700;DHT22;6414;49.570;6.060;2023-03-23T10:03:18;11.30;99.90
12700;DHT22;6414;49.570;6.060;2023-03-23T10:06:03;11.30;99.90
12700;DHT22;6414;49.570;6.060;2023-03-23T10:08:53;11.50;99.90
12700;DHT22;6414;49.570;6.060;2023-03-23T10:11:44;11.40;99.90
12700;DHT22;6414;49.570;6.060;2023-03-23T10:14:28;11.30;99.90
12700;DHT22;6414;49.570;6.060;2023-03-23T10:17:20;11.30;99.90
12700;DHT22;6414;49.570;6.060;2023-03-23T10:23:00;11.50;99.90
12700;DHT22;6414;49.570;6.060;2023-03-23T10:25:52;11.30;99.90
12700;DHT22;6414;49.570;6.060;2023-03-23T10:28:42;11.30;99.90
12700;DHT22;6414;49.570;6.060;2023-03-23T10:31:29;11.40;99.90
12700;DHT22;6414;49.570;6.060;2023-03-23T10:34:21;11.60;99.90
12700;DHT22;6414;49.570;6.060;2023-03-23T10:37:05;11.70;99.90
12700;DHT22;6414;49.570;6.060;2023-03-23T10:39:53;11.60;99.90
12700;DHT22;6414;49.570;6.060;2023-03-23T10:42:38;11.70;99.90
12700;DHT22;6414;49.570;6.060;2023-03-23T10:45:26;11.90;99.90
12700;DHT22;6414;49.570;6.060;2023-03-23T10:48:13;11.80;99.90
12700;DHT22;6414;49.570;6.060;2023-03-23T10:50:58;12.00;99.90
12700;DHT22;6414;49.570;6.060;2023-03-23T10:53:44;11.90;99.90
12700;DHT22;6414;49.570;6.060;2023-03-23T10:56:43;12.00;99.90
12700;DHT22;6414;49.570;6.060;2023-03-23T10:59:29;12.00;99.90
12700;DHT22;6414;49.570;6.060;2023-03-23T11:02:17;12.00;99.90
12700;DHT22;6414;49.570;6.060;2023-03-23T11:05:03;11.90;99.90
12700;DHT22;6414;49.570;6.060;2023-03-23T11:07:51;11.90;99.90
12700;DHT22;6414;49.570;6.060;2023-03-23T11:10:39;11.90;99.90
12700;DHT22;6414;49.570;6.060;2023-03-23T11:13:30;11.90;99.90
12700;DHT22;6414;49.570;6.060;2023-03-23T11:16:32;11.80;99.90
12700;DHT22;6414;49.570;6.060;2023-03-23T11:19:21;11.80;99.90
12700;DHT22;6414;49.570;6.060;2023-03-23T11:24:55;11.90;99.90
12700;DHT22;6414;49.570;6.060;2023-03-23T11:27:41;11.90;99.90
12700;DHT22;6414;49.570;6.060;2023-03-23T11:30:27;12.00;99.90
12700;DHT22;6414;49.570;6.060;2023-03-23T11:33:13;12.00;99.90
12700;DHT22;6414;49.570;6.060;2023-03-23T11:35:58;12.20;99.90
12700;DHT22;6414;49.570;6.060;2023-03-23T11:38:44;12.10;99.90
12700;DHT22;6414;49.570;6.060;2023-03-23T11:41:34;12.00;99.90
12700;DHT22;6414;49.570;6.060;2023-03-23T11:44:21;11.70;99.90
12700;DHT22;6414;49.570;6.060;2023-03-23T11:50:31;11.80;99.90
12700;DHT22;6414;49.570;6.060;2023-03-23T11:53:50;11.90;99.90
12700;DHT22;6414;49.570;6.060;2023-03-23T11:56:35;11.80;99.90
12700;DHT22;6414;49.570;6.060;2023-03-23T11:59:33;11.60;99.90
12700;DHT22;6414;49.570;6.060;2023-03-23T12:02:41;11.50;99.90
12700;DHT22;6414;49.570;6.060;2023-03-23T12:05:49;11.70;99.90
12700;DHT22;6414;49.570;6.060;2023-03-23T12:17:44;11.70;99.90
12700;DHT22;6414;49.570;6.060;2023-03-23T12:20:31;11.70;99.90
12700;DHT22;6414;49.570;6.060;2023-03-23T12:29:06;12.00;99.90
12700;DHT22;6414;49.570;6.060;2023-03-23T12:32:13;12.00;99.90
12700;DHT22;6414;49.570;6.060;2023-03-23T12:34:54;12.10;99.90
12700;DHT22;6414;49.570;6.060;2023-03-23T12:37:43;12.10;99.90
12700;DHT22;6414;49.570;6.060;2023-03-23T12:40:43;12.20;99.90
12700;DHT22;6414;49.570;6.060;2023-03-23T12:44:05;12.30;99.90
12700;DHT22;6414;49.570;6.060;2023-03-23T12:49:54;12.40;99.90
12700;DHT22;6414;49.570;6.060;2023-03-23T12:53:05;12.60;99.90
12700;DHT22;6414;49.570;6.060;2023-03-23T12:56:14;12.70;99.90
12700;DHT22;6414;49.570;6.060;2023-03-23T12:59:19;12.70;99.90
12700;DHT22;6414;49.570;6.060;2023-03-23T13:02:01;12.70;99.90
12700;DHT22;6414;49.570;6.060;2023-03-23T13:04:46;12.80;99.90
12700;DHT22;6414;49.570;6.060;2023-03-23T13:07:46;13.10;99.90
12700;DHT22;6414;49.570;6.060;2023-03-23T13:10:46;13.20;99.90
12700;DHT22;6414;49.570;6.060;2023-03-23T13:13:21;13.10;99.90
12700;DHT22;6414;49.570;6.060;2023-03-23T13:16:27;12.90;99.90
12700;DHT22;6414;49.570;6.060;2023-03-23T13:22:11;12.80;99.90
12700;DHT22;6414;49.570;6.060;2023-03-23T13:24:56;12.80;99.90
12700;DHT22;6414;49.570;6.060;2023-03-23T13:27:41;12.80;99.90
12700;DHT22;6414;49.570;6.060;2023-03-23T13:30:27;12.70;99.90
12700;DHT22;6414;49.570;6.060;2023-03-23T13:33:14;12.60;99.90
12700;DHT22;6414;49.570;6.060;2023-03-23T13:36:03;12.50;99.90
12700;DHT22;6414;49.570;6.060;2023-03-23T13:38:48;12.50;99.90
12700;DHT22;6414;49.570;6.060;2023-03-23T13:41:44;12.60;99.90
12700;DHT22;6414;49.570;6.060;2023-03-23T13:44:23;12.60;99.90
12700;DHT22;6414;49.570;6.060;2023-03-23T13:47:36;12.70;99.90
12700;DHT22;6414;49.570;6.060;2023-03-23T13:50:10;12.70;99.90
12700;DHT22;6414;49.570;6.060;2023-03-23T13:52:53;12.90;99.90
12700;DHT22;6414;49.570;6.060;2023-03-23T13:55:42;12.90;99.90
12700;DHT22;6414;49.570;6.060;2023-03-23T13:58:27;12.90;99.90
12700;DHT22;6414;49.570;6.060;2023-03-23T14:01:17;12.90;99.90
12700;DHT22;6414;49.570;6.060;2023-03-23T14:04:06;12.80;99.90
12700;DHT22;6414;49.570;6.060;2023-03-23T14:06:49;12.90;99.90
12700;DHT22;6414;49.570;6.060;2023-03-23T14:09:39;12.90;99.90
12700;DHT22;6414;49.570;6.060;2023-03-23T14:12:21;12.90;99.90
12700;DHT22;6414;49.570;6.060;2023-03-23T14:15:11;12.90;99.90
12700;DHT22;6414;49.570;6.060;2023-03-23T14:17:53;12.80;99.90
12700;DHT22;6414;49.570;6.060;2023-03-23T14:20:40;12.80;99.90
12700;DHT22;6414;49.570;6.060;2023-03-23T14:23:26;12.80;99.90
12700;DHT22;6414;49.570;6.060;2023-03-23T14:26:15;12.80;99.90
12700;DHT22;6414;49.570;6.060;2023-03-23T14:28:58;13.00;99.90
12700;DHT22;6414;49.570;6.060;2023-03-23T14:31:45;13.20;99.90
12700;DHT22;6414;49.570;6.060;2023-03-23T14:34:31;13.20;99.90
12700;DHT22;6414;49.570;6.060;2023-03-23T14:37:16;13.20;99.90
12700;DHT22;6414;49.570;6.060;2023-03-23T14:40:02;13.20;99.90
12700;DHT22;6414;49.570;6.060;2023-03-23T14:42:50;13.20;99.90
12700;DHT22;6414;49.570;6.060;2023-03-23T14:45:34;13.10;99.90
12700;DHT22;6414;49.570;6.060;2023-03-23T14:48:21;12.90;99.90
12700;DHT22;6414;49.570;6.060;2023-03-23T14:51:07;13.00;99.90
12700;DHT22;6414;49.570;6.060;2023-03-23T14:53:53;13.00;99.90
12700;DHT22;6414;49.570;6.060;2023-03-23T14:56:39;13.00;99.90
12700;DHT22;6414;49.570;6.060;2023-03-23T14:59:27;12.90;99.90
12700;DHT22;6414;49.570;6.060;2023-03-23T15:02:19;12.90;99.90
12700;DHT22;6414;49.570;6.060;2023-03-23T15:05:04;12.90;99.90
12700;DHT22;6414;49.570;6.060;2023-03-23T15:07:50;12.80;99.90
12700;DHT22;6414;49.570;6.060;2023-03-23T15:10:35;12.80;99.90
12700;DHT22;6414;49.570;6.060;2023-03-23T15:13:22;12.90;99.90
12700;DHT22;6414;49.570;6.060;2023-03-23T15:16:22;12.90;99.90
12700;DHT22;6414;49.570;6.060;2023-03-23T15:19:02;12.90;99.90
12700;DHT22;6414;49.570;6.060;2023-03-23T15:21:48;12.80;99.90
12700;DHT22;6414;49.570;6.060;2023-03-23T15:24:39;12.90;99.90
12700;DHT22;6414;49.570;6.060;2023-03-23T15:27:27;13.00;99.90
12700;DHT22;6414;49.570;6.060;2023-03-23T15:33:12;13.00;99.90
12700;DHT22;6414;49.570;6.060;2023-03-23T15:35:57;13.00;99.90
12700;DHT22;6414;49.570;6.060;2023-03-23T15:38:44;12.90;99.90
12700;DHT22;6414;49.570;6.060;2023-03-23T15:41:32;12.90;99.90
12700;DHT22;6414;49.570;6.060;2023-03-23T15:44:40;13.00;99.90
12700;DHT22;6414;49.570;6.060;2023-03-23T15:47:17;12.80;99.90
12700;DHT22;6414;49.570;6.060;2023-03-23T15:50:12;12.80;99.90
12700;DHT22;6414;49.570;6.060;2023-03-23T15:52:57;12.80;99.90
12700;DHT22;6414;49.570;6.060;2023-03-23T15:55:43;12.80;99.90
12700;DHT22;6414;49.570;6.060;2023-03-23T15:58:29;12.80;99.90
12700;DHT22;6414;49.570;6.060;2023-03-23T16:01:22;12.70;99.90
12700;DHT22;6414;49.570;6.060;2023-03-23T16:04:14;12.70;99.90
12700;DHT22;6414;49.570;6.060;2023-03-23T16:06:59;12.70;99.90
12700;DHT22;6414;49.570;6.060;2023-03-23T16:09:46;12.80;99.90
12700;DHT22;6414;49.570;6.060;2023-03-23T16:12:32;12.80;99.90
12700;DHT22;6414;49.570;6.060;2023-03-23T16:15:18;12.70;99.90
12700;DHT22;6414;49.570;6.060;2023-03-23T16:18:05;12.60;99.90
12700;DHT22;6414;49.570;6.060;2023-03-23T16:20:51;12.60;99.90
12700;DHT22;6414;49.570;6.060;2023-03-23T16:23:37;12.60;99.90
12700;DHT22;6414;49.570;6.060;2023-03-23T16:26:23;12.60;99.90
12700;DHT22;6414;49.570;6.060;2023-03-23T16:29:13;12.60;99.90
12700;DHT22;6414;49.570;6.060;2023-03-23T16:31:59;12.70;99.90
12700;DHT22;6414;49.570;6.060;2023-03-23T16:34:45;12.60;99.90
12700;DHT22;6414;49.570;6.060;2023-03-23T16:37:32;12.50;99.90
12700;DHT22;6414;49.570;6.060;2023-03-23T16:40:18;12.50;99.90
12700;DHT22;6414;49.570;6.060;2023-03-23T16:43:04;12.60;99.90
12700;DHT22;6414;49.570;6.060;2023-03-23T16:45:50;12.60;99.90
12700;DHT22;6414;49.570;6.060;2023-03-23T16:48:36;12.60;99.90
12700;DHT22;6414;49.570;6.060;2023-03-23T16:51:22;12.60;99.90
12700;DHT22;6414;49.570;6.060;2023-03-23T16:54:09;12.50;99.90
12700;DHT22;6414;49.570;6.060;2023-03-23T16:56:56;12.50;99.90
12700;DHT22;6414;49.570;6.060;2023-03-23T16:59:42;12.40;99.90
12700;DHT22;6414;49.570;6.060;2023-03-23T17:02:27;12.50;99.90
12700;DHT22;6414;49.570;6.060;2023-03-23T17:05:14;12.50;99.90
12700;DHT22;6414;49.570;6.060;2023-03-23T17:08:00;12.40;99.90
12700;DHT22;6414;49.570;6.060;2023-03-23T17:10:46;12.40;99.90
12700;DHT22;6414;49.570;6.060;2023-03-23T17:13:33;12.30;99.90
12700;DHT22;6414;49.570;6.060;2023-03-23T17:16:19;12.30;99.90
12700;DHT22;6414;49.570;6.060;2023-03-23T17:19:05;12.30;99.90
12700;DHT22;6414;49.570;6.060;2023-03-23T17:21:52;12.20;99.90
12700;DHT22;6414;49.570;6.060;2023-03-23T17:24:38;12.10;99.90
12700;DHT22;6414;49.570;6.060;2023-03-23T17:27:24;12.10;99.90
12700;DHT22;6414;49.570;6.060;2023-03-23T17:30:10;12.10;99.90
12700;DHT22;6414;49.570;6.060;2023-03-23T17:32:56;12.00;99.90
12700;DHT22;6414;49.570;6.060;2023-03-23T17:35:44;12.00;99.90
12700;DHT22;6414;49.570;6.060;2023-03-23T17:38:28;11.90;99.90
12700;DHT22;6414;49.570;6.060;2023-03-23T17:41:15;11.90;99.90
12700;DHT22;6414;49.570;6.060;2023-03-23T17:44:01;11.90;99.90
12700;DHT22;6414;49.570;6.060;2023-03-23T17:46:47;11.80;99.90
12700;DHT22;6414;49.570;6.060;2023-03-23T17:49:33;11.80;99.90
12700;DHT22;6414;49.570;6.060;2023-03-23T17:52:19;11.70;99.90
12700;DHT22;6414;49.570;6.060;2023-03-23T17:55:05;11.60;99.90
12700;DHT22;6414;49.570;6.060;2023-03-23T17:57:51;11.70;99.90
12700;DHT22;6414;49.570;6.060;2023-03-23T18:00:37;11.60;99.90
12700;DHT22;6414;49.570;6.060;2023-03-23T18:03:24;11.60;99.90
12700;DHT22;6414;49.570;6.060;2023-03-23T18:06:09;11.60;99.90
12700;DHT22;6414;49.570;6.060;2023-03-23T18:08:56;11.60;99.90
12700;DHT22;6414;49.570;6.060;2023-03-23T18:11:42;11.60;99.90
12700;DHT22;6414;49.570;6.060;2023-03-23T18:14:28;11.60;99.90
12700;DHT22;6414;49.570;6.060;2023-03-23T18:17:14;11.60;99.90
12700;DHT22;6414;49.570;6.060;2023-03-23T18:20:00;11.60;99.90
12700;DHT22;6414;49.570;6.060;2023-03-23T18:22:47;11.70;99.90
12700;DHT22;6414;49.570;6.060;2023-03-23T18:25:33;11.70;99.90
12700;DHT22;6414;49.570;6.060;2023-03-23T18:28:19;11.70;99.90
12700;DHT22;6414;49.570;6.060;2023-03-23T18:33:33;11.70;99.90
12700;DHT22;6414;49.570;6.060;2023-03-23T18:36:21;11.80;99.90
12700;DHT22;6414;49.570;6.060;2023-03-23T18:39:06;11.80;99.90
12700;DHT22;6414;49.570;6.060;2023-03-23T18:41:52;11.80;99.90
12700;DHT22;6414;49.570;6.060;2023-03-23T18:44:38;11.80;99.90
12700;DHT22;6414;49.570;6.060;2023-03-23T18:47:25;11.90;99.90
12700;DHT22;6414;49.570;6.060;2023-03-23T18:50:11;11.90;99.90